sensor_id;sensor_type;location;lat;lon;timestamp;pressure;altitude;pressure_sealevel;temperature;humidity
58973;BME280;44750;52.040;7.472;2024-01-10T00:03:50;100955.88;;;-4.85;100.00
58973;BME280;44750;52.040;7.472;2024-01-10T00:08:51;100957.78;;;-4.90;100.00
58973;BME280;44750;52.040;7.472;2024-01-10T00:13:51;100962.41;;;-4.97;100.00
58973;BME280;44750;52.040;7.472;2024-01-10T00:18:51;100999.38;;;-4.97;100.00
58973;BME280;44750;52.040;7.472;2024-01-10T00:23:51;101017.03;;;-4.99;100.00
58973;BME280;44750;52.040;7.472;2024-01-10T00:28:51;101036.38;;;-4.98;100.00
58973;BME280;44750;52.040;7.472;2024-01-10T00:33:52;101036.59;;;-5.06;100.00
58973;BME280;44750;52.040;7.472;2024-01-10T00:38:52;101072.50;;;-5.00;100.00
58973;BME280;44750;52.040;7.472;2024-01-10T00:43:52;101083.06;;;-5.00;100.00
58973;BME280;44750;52.040;7.472;2024-01-10T00:48:52;101086.66;;;-5.03;100.00
58973;BME280;44750;52.040;7.472;2024-01-10T00:53:52;101098.13;;;-5.04;100.00
58973;BME280;44750;52.040;7.472;2024-01-10T00:58:53;101117.53;;;-5.05;100.00
58973;BME280;44750;52.040;7.472;2024-01-10T01:03:53;101139.56;;;-5.06;100.00
58973;BME280;44750;52.040;7.472;2024-01-10T01:08:53;101149.22;;;-5.05;100.00
58973;BME280;44750;52.040;7.472;2024-01-10T01:13:53;101162.41;;;-5.05;100.00
58973;BME280;44750;52.040;7.472;2024-01-10T01:18:54;101171.19;;;-5.05;100.00
58973;BME280;44750;52.040;7.472;2024-01-10T01:23:54;101183.56;;;-5.07;100.00
58973;BME280;44750;52.040;7.472;2024-01-10T01:28:54;101185.34;;;-5.07;100.00
58973;BME280;44750;52.040;7.472;2024-01-10T01:33:54;101185.44;;;-5.12;100.00
58973;BME280;44750;52.040;7.472;2024-01-10T01:38:55;101200.38;;;-5.11;100.00
58973;BME280;44750;52.040;7.472;2024-01-10T01:43:55;101200.44;;;-5.12;100.00
58973;BME280;44750;52.040;7.472;2024-01-10T01:48:55;101201.38;;;-5.15;100.00
58973;BME280;44750;52.040;7.472;2024-01-10T01:53:56;101213.69;;;-5.14;100.00
58973;BME280;44750;52.040;7.472;2024-01-10T01:58:56;101208.53;;;-5.20;100.00
58973;BME280;44750;52.040;7.472;2024-01-10T02:03:56;101205.16;;;-5.24;100.00
58973;BME280;44750;52.040;7.472;2024-01-10T02:08:57;101196.53;;;-5.32;100.00
58973;BME280;44750;52.040;7.472;2024-01-10T02:13:57;101192.28;;;-5.38;100.00
58973;BME280;44750;52.040;7.472;2024-01-10T02:18:58;101188.84;;;-5.40;100.00
58973;BME280;44750;52.040;7.472;2024-01-10T02:23:58;101223.91;;;-5.36;100.00
58973;BME280;44750;52.040;7.472;2024-01-10T02:28:58;101201.31;;;-5.46;100.00
58973;BME280;44750;52.040;7.472;2024-01-10T02:33:58;101239.88;;;-5.41;100.00
58973;BME280;44750;52.040;7.472;2024-01-10T02:38:58;101218.09;;;-5.50;100.00
58973;BME280;44750;52.040;7.472;2024-01-10T02:43:59;101241.78;;;-5.47;100.00
58973;BME280;44750;52.040;7.472;2024-01-10T02:48:59;101228.75;;;-5.54;100.00
58973;BME280;44750;52.040;7.472;2024-01-10T02:53:59;101223.72;;;-5.64;100.00
58973;BME280;44750;52.040;7.472;2024-01-10T02:58:59;101259.63;;;-5.59;100.00
58973;BME280;44750;52.040;7.472;2024-01-10T03:04:00;101282.34;;;-5.51;100.00
58973;BME280;44750;52.040;7.472;2024-01-10T03:09:00;101283.19;;;-5.51;100.00
58973;BME280;44750;52.040;7.472;2024-01-10T03:14:07;101304.31;;;-5.51;100.00
58973;BME280;44750;52.040;7.472;2024-01-10T03:19:07;101318.31;;;-5.47;100.00
58973;BME280;44750;52.040;7.472;2024-01-10T03:24:08;101304.22;;;-5.48;100.00
58973;BME280;44750;52.040;7.472;2024-01-10T03:29:08;101291.16;;;-5.52;100.00
58973;BME280;44750;52.040;7.472;2024-01-10T03:34:08;101291.25;;;-5.56;100.00
58973;BME280;44750;52.040;7.472;2024-01-10T03:39:08;101319.19;;;-5.48;100.00
58973;BME280;44750;52.040;7.472;2024-01-10T03:44:08;101313.94;;;-5.48;100.00
58973;BME280;44750;52.040;7.472;2024-01-10T03:49:09;101297.38;;;-5.55;100.00
58973;BME280;44750;52.040;7.472;2024-01-10T03:54:09;101299.97;;;-5.54;100.00
58973;BME280;44750;52.040;7.472;2024-01-10T03:59:09;101314.06;;;-5.55;100.00
58973;BME280;44750;52.040;7.472;2024-01-10T04:04:09;101318.34;;;-5.50;100.00
58973;BME280;44750;52.040;7.472;2024-01-10T04:09:09;101338.56;;;-5.49;100.00
58973;BME280;44750;52.040;7.472;2024-01-10T04:14:10;101321.91;;;-5.51;100.00
58973;BME280;44750;52.040;7.472;2024-01-10T04:19:10;101338.56;;;-5.49;100.00
58973;BME280;44750;52.040;7.472;2024-01-10T04:24:10;101343.84;;;-5.49;100.00
58973;BME280;44750;52.040;7.472;2024-01-10T04:29:10;101319.50;;;-5.61;100.00
58973;BME280;44750;52.040;7.472;2024-01-10T04:34:10;101332.63;;;-5.59;100.00
58973;BME280;44750;52.040;7.472;2024-01-10T04:39:11;101321.38;;;-5.66;100.00
58973;BME280;44750;52.040;7.472;2024-01-10T04:44:11;101336.34;;;-5.68;100.00
58973;BME280;44750;52.040;7.472;2024-01-10T04:49:11;101345.13;;;-5.67;100.00
58973;BME280;44750;52.040;7.472;2024-01-10T04:54:11;101346.13;;;-5.73;100.00
58973;BME280;44750;52.040;7.472;2024-01-10T04:59:12;101361.09;;;-5.74;100.00
58973;BME280;44750;52.040;7.472;2024-01-10T05:04:12;101354.94;;;-5.74;100.00
58973;BME280;44750;52.040;7.472;2024-01-10T05:09:12;101371.56;;;-5.71;100.00
58973;BME280;44750;52.040;7.472;2024-01-10T05:14:12;101375.97;;;-5.71;100.00
58973;BME280;44750;52.040;7.472;2024-01-10T05:19:13;101394.34;;;-5.68;100.00
58973;BME280;44750;52.040;7.472;2024-01-10T05:24:13;101384.00;;;-5.77;100.00
58973;BME280;44750;52.040;7.472;2024-01-10T05:29:13;101395.41;;;-5.75;100.00
58973;BME280;44750;52.040;7.472;2024-01-10T05:34:13;101401.66;;;-5.79;100.00
58973;BME280;44750;52.040;7.472;2024-01-10T05:39:14;101391.25;;;-5.87;100.00
58973;BME280;44750;52.040;7.472;2024-01-10T05:44:14;101396.56;;;-5.89;100.00
58973;BME280;44750;52.040;7.472;2024-01-10T05:49:14;101389.50;;;-5.88;100.00
58973;BME280;44750;52.040;7.472;2024-01-10T05:54:14;101402.69;;;-5.88;100.00
58973;BME280;44750;52.040;7.472;2024-01-10T05:59:15;101405.31;;;-5.88;100.00
58973;BME280;44750;52.040;7.472;2024-01-10T06:04:15;101394.81;;;-5.90;100.00
58973;BME280;44750;52.040;7.472;2024-01-10T06:09:15;101393.97;;;-5.90;100.00
58973;BME280;44750;52.040;7.472;2024-01-10T06:14:16;101379.97;;;-5.94;100.00
58973;BME280;44750;52.040;7.472;2024-01-10T06:19:16;101382.66;;;-5.97;100.00
58973;BME280;44750;52.040;7.472;2024-01-10T06:24:16;101380.13;;;-6.01;100.00
58973;BME280;44750;52.040;7.472;2024-01-10T06:29:18;101391.53;;;-5.99;100.00
58973;BME280;44750;52.040;7.472;2024-01-10T06:34:18;101394.13;;;-5.98;100.00
58973;BME280;44750;52.040;7.472;2024-01-10T06:39:19;101390.66;;;-5.98;100.00
58973;BME280;44750;52.040;7.472;2024-01-10T06:44:19;101381.06;;;-6.04;100.00
58973;BME280;44750;52.040;7.472;2024-01-10T06:49:19;101402.13;;;-6.02;100.00
58973;BME280;44750;52.040;7.472;2024-01-10T06:54:19;101408.31;;;-6.05;100.00
58973;BME280;44750;52.040;7.472;2024-01-10T06:59:19;101406.59;;;-6.06;100.00
58973;BME280;44750;52.040;7.472;2024-01-10T07:04:20;101396.16;;;-6.12;100.00
58973;BME280;44750;52.040;7.472;2024-01-10T07:09:20;101410.31;;;-6.16;100.00
58973;BME280;44750;52.040;7.472;2024-01-10T07:14:20;101419.09;;;-6.17;100.00
58973;BME280;44750;52.040;7.472;2024-01-10T07:19:20;101431.41;;;-6.16;100.00
58973;BME280;44750;52.040;7.472;2024-01-10T07:24:20;101422.63;;;-6.18;100.00
58973;BME280;44750;52.040;7.472;2024-01-10T07:29:21;101427.03;;;-6.19;100.00
58973;BME280;44750;52.040;7.472;2024-01-10T07:34:21;101427.13;;;-6.22;100.00
58973;BME280;44750;52.040;7.472;2024-01-10T07:39:21;101415.81;;;-6.29;100.00
58973;BME280;44750;52.040;7.472;2024-01-10T07:44:21;101450.88;;;-6.24;100.00
58973;BME280;44750;52.040;7.472;2024-01-10T07:49:21;101463.09;;;-6.19;100.00
58973;BME280;44750;52.040;7.472;2024-01-10T07:54:22;101455.06;;;-6.15;100.00
58973;BME280;44750;52.040;7.472;2024-01-10T07:59:22;101482.13;;;-6.05;100.00
58973;BME280;44750;52.040;7.472;2024-01-10T08:04:22;101463.78;;;-6.10;100.00
58973;BME280;44750;52.040;7.472;2024-01-10T08:09:22;101461.94;;;-6.05;100.00
58973;BME280;44750;52.040;7.472;2024-01-10T08:14:22;101458.41;;;-6.03;100.00
58973;BME280;44750;52.040;7.472;2024-01-10T08:19:26;101477.72;;;-6.03;100.00
58973;BME280;44750;52.040;7.472;2024-01-10T08:24:26;101511.50;;;-5.78;100.00
58973;BME280;44750;52.040;7.472;2024-01-10T08:29:27;101487.66;;;-5.74;100.00
58973;BME280;44750;52.040;7.472;2024-01-10T08:34:27;101507.59;;;-5.59;100.00
58973;BME280;44750;52.040;7.472;2024-01-10T08:39:27;101477.69;;;-5.58;100.00
58973;BME280;44750;52.040;7.472;2024-01-10T08:44:27;101463.69;;;-5.60;100.00
58973;BME280;44750;52.040;7.472;2024-01-10T08:49:27;101486.31;;;-5.49;100.00
58973;BME280;44750;52.040;7.472;2024-01-10T08:54:28;101507.88;;;-5.29;100.00
58973;BME280;44750;52.040;7.472;2024-01-10T08:59:28;101522.56;;;-5.15;100.00
58973;BME280;44750;52.040;7.472;2024-01-10T09:04:29;101487.25;;;-5.10;100.00
58973;BME280;44750;52.040;7.472;2024-01-10T09:09:29;101460.97;;;-5.14;100.00
58973;BME280;44750;52.040;7.472;2024-01-10T09:14:29;101514.03;;;-4.88;100.00
58973;BME280;44750;52.040;7.472;2024-01-10T09:19:29;101528.59;;;-4.70;100.00
58973;BME280;44750;52.040;7.472;2024-01-10T09:24:30;101502.13;;;-4.66;100.00
58973;BME280;44750;52.040;7.472;2024-01-10T09:29:30;101507.16;;;-4.56;100.00
58973;BME280;44750;52.040;7.472;2024-01-10T09:34:30;101480.63;;;-4.53;100.00
58973;BME280;44750;52.040;7.472;2024-01-10T09:39:30;101491.78;;;-4.40;100.00
58973;BME280;44750;52.040;7.472;2024-01-10T09:44:31;101473.06;;;-4.32;100.00
58973;BME280;44750;52.040;7.472;2024-01-10T09:49:31;101491.19;;;-4.16;100.00
58973;BME280;44750;52.040;7.472;2024-01-10T09:54:31;101504.09;;;-4.04;100.00
58973;BME280;44750;52.040;7.472;2024-01-10T09:59:33;101512.44;;;-3.87;100.00
58973;BME280;44750;52.040;7.472;2024-01-10T10:04:33;101518.97;;;-3.67;100.00
58973;BME280;44750;52.040;7.472;2024-01-10T10:09:33;101528.16;;;-3.47;100.00
58973;BME280;44750;52.040;7.472;2024-01-10T10:14:33;101490.00;;;-3.40;100.00
58973;BME280;44750;52.040;7.472;2024-01-10T10:19:34;101506.13;;;-3.18;100.00
58973;BME280;44750;52.040;7.472;2024-01-10T10:24:34;101489.03;;;-3.06;100.00
58973;BME280;44750;52.040;7.472;2024-01-10T10:29:36;101499.84;;;-2.86;100.00
58973;BME280;44750;52.040;7.472;2024-01-10T10:34:36;101512.25;;;-2.58;100.00
58973;BME280;44750;52.040;7.472;2024-01-10T10:39:36;101504.59;;;-2.40;100.00
58973;BME280;44750;52.040;7.472;2024-01-10T10:44:38;101477.34;;;-2.17;100.00
58973;BME280;44750;52.040;7.472;2024-01-10T10:49:47;101489.47;;;-1.85;100.00
58973;BME280;44750;52.040;7.472;2024-01-10T10:54:51;101491.78;;;-1.50;100.00
58973;BME280;44750;52.040;7.472;2024-01-10T10:59:53;101493.69;;;-1.06;100.00
58973;BME280;44750;52.040;7.472;2024-01-10T11:04:54;101526.09;;;-0.51;100.00
58973;BME280;44750;52.040;7.472;2024-01-10T11:09:54;101525.06;;;0.38;100.00
58973;BME280;44750;52.040;7.472;2024-01-10T11:15:19;101485.25;;;1.12;99.65
58973;BME280;44750;52.040;7.472;2024-01-10T11:21:50;101375.88;;;1.49;95.14
58973;BME280;44750;52.040;7.472;2024-01-10T11:26:14;101300.81;;;1.73;90.96
58973;BME280;44750;52.040;7.472;2024-01-10T11:31:15;101192.72;;;1.81;87.62
58973;BME280;44750;52.040;7.472;2024-01-10T11:36:17;101114.94;;;1.88;85.02
58973;BME280;44750;52.040;7.472;2024-01-10T11:41:26;101032.97;;;1.90;82.35
58973;BME280;44750;52.040;7.472;2024-01-10T11:46:27;101029.50;;;2.18;80.59
58973;BME280;44750;52.040;7.472;2024-01-10T11:51:28;100931.53;;;2.18;78.69
58973;BME280;44750;52.040;7.472;2024-01-10T11:56:42;100899.81;;;2.43;77.45
58973;BME280;44750;52.040;7.472;2024-01-10T12:01:42;100812.22;;;2.48;75.90
58973;BME280;44750;52.040;7.472;2024-01-10T12:06:44;100821.41;;;2.71;75.04
58973;BME280;44750;52.040;7.472;2024-01-10T12:11:45;100767.78;;;2.87;73.67
58973;BME280;44750;52.040;7.472;2024-01-10T12:16:45;100750.50;;;3.06;72.13
58973;BME280;44750;52.040;7.472;2024-01-10T12:21:45;100693.19;;;3.23;70.98
58973;BME280;44750;52.040;7.472;2024-01-10T12:26:47;100637.84;;;3.36;69.51
58973;BME280;44750;52.040;7.472;2024-01-10T12:31:48;100610.94;;;3.63;67.66
58973;BME280;44750;52.040;7.472;2024-01-10T12:36:48;100623.00;;;4.06;65.41
58973;BME280;44750;52.040;7.472;2024-01-10T12:41:48;100788.94;;;4.95;63.25
58973;BME280;44750;52.040;7.472;2024-01-10T12:46:50;101396.72;;;7.68;57.68
58973;BME280;44750;52.040;7.472;2024-01-10T12:51:51;101517.16;;;9.96;50.50
58973;BME280;44750;52.040;7.472;2024-01-10T12:56:51;101537.75;;;11.94;44.11
58973;BME280;44750;52.040;7.472;2024-01-10T13:01:52;101488.06;;;13.35;38.49
58973;BME280;44750;52.040;7.472;2024-01-10T13:06:52;101357.59;;;14.24;36.23
58973;BME280;44750;52.040;7.472;2024-01-10T13:11:52;100972.78;;;14.48;33.90
58973;BME280;44750;52.040;7.472;2024-01-10T13:16:52;100496.53;;;13.99;33.22
58973;BME280;44750;52.040;7.472;2024-01-10T13:21:53;100217.81;;;13.63;33.50
58973;BME280;44750;52.040;7.472;2024-01-10T13:26:53;99887.84;;;13.19;33.00
58973;BME280;44750;52.040;7.472;2024-01-10T13:31:53;99625.31;;;12.75;32.91
58973;BME280;44750;52.040;7.472;2024-01-10T13:36:53;99550.56;;;12.79;32.21
58973;BME280;44750;52.040;7.472;2024-01-10T13:41:54;99916.41;;;13.67;31.30
58973;BME280;44750;52.040;7.472;2024-01-10T13:46:54;99953.22;;;14.28;30.37
58973;BME280;44750;52.040;7.472;2024-01-10T13:51:54;99797.06;;;14.35;30.32
58973;BME280;44750;52.040;7.472;2024-01-10T13:56:54;99531.28;;;14.14;30.31
58973;BME280;44750;52.040;7.472;2024-01-10T14:01:55;99510.13;;;14.23;29.97
58973;BME280;44750;52.040;7.472;2024-01-10T14:06:55;99335.72;;;14.18;29.84
58973;BME280;44750;52.040;7.472;2024-01-10T14:11:55;98998.09;;;13.74;29.48
58973;BME280;44750;52.040;7.472;2024-01-10T14:16:56;98738.66;;;13.25;30.20
58973;BME280;44750;52.040;7.472;2024-01-10T14:21:56;98591.59;;;12.96;30.31
58973;BME280;44750;52.040;7.472;2024-01-10T14:26:56;98310.13;;;12.46;30.84
58973;BME280;44750;52.040;7.472;2024-01-10T14:31:56;98236.28;;;12.25;30.95
58973;BME280;44750;52.040;7.472;2024-01-10T14:36:56;97955.66;;;11.60;30.65
58973;BME280;44750;52.040;7.472;2024-01-10T14:41:57;97652.94;;;10.90;31.80
58973;BME280;44750;52.040;7.472;2024-01-10T14:46:57;97588.53;;;10.37;32.44
58973;BME280;44750;52.040;7.472;2024-01-10T14:51:57;97277.22;;;9.44;33.36
58973;BME280;44750;52.040;7.472;2024-01-10T14:56:57;96663.84;;;7.62;35.04
58973;BME280;44750;52.040;7.472;2024-01-10T15:01:57;96582.13;;;5.94;37.02
58973;BME280;44750;52.040;7.472;2024-01-10T15:06:58;96559.31;;;4.60;39.42
58973;BME280;44750;52.040;7.472;2024-01-10T15:11:58;96678.09;;;3.62;41.73
58973;BME280;44750;52.040;7.472;2024-01-10T15:16:58;96906.41;;;2.92;44.22
58973;BME280;44750;52.040;7.472;2024-01-10T15:21:58;97078.56;;;2.40;46.28
58973;BME280;44750;52.040;7.472;2024-01-10T15:26:59;97238.81;;;1.87;48.08
58973;BME280;44750;52.040;7.472;2024-01-10T15:31:59;97442.81;;;1.44;50.34
58973;BME280;44750;52.040;7.472;2024-01-10T15:36:59;97645.44;;;1.11;52.47
58973;BME280;44750;52.040;7.472;2024-01-10T15:41:59;97810.06;;;0.83;54.32
58973;BME280;44750;52.040;7.472;2024-01-10T15:46:59;98013.59;;;0.54;55.75
58973;BME280;44750;52.040;7.472;2024-01-10T15:52:00;98196.25;;;0.37;57.44
58973;BME280;44750;52.040;7.472;2024-01-10T15:57:00;98288.50;;;0.19;58.85
58973;BME280;44750;52.040;7.472;2024-01-10T16:02:00;98416.81;;;-0.07;60.72
58973;BME280;44750;52.040;7.472;2024-01-10T16:07:00;98548.84;;;-0.16;62.41
58973;BME280;44750;52.040;7.472;2024-01-10T16:12:00;98623.63;;;-0.40;63.93
58973;BME280;44750;52.040;7.472;2024-01-10T16:17:01;98788.38;;;-0.50;66.22
58973;BME280;44750;52.040;7.472;2024-01-10T16:22:01;98890.75;;;-0.67;68.03
58973;BME280;44750;52.040;7.472;2024-01-10T16:27:01;99017.13;;;-0.74;69.63
58973;BME280;44750;52.040;7.472;2024-01-10T16:32:01;99115.28;;;-0.84;71.05
58973;BME280;44750;52.040;7.472;2024-01-10T16:37:02;99160.91;;;-1.02;72.15
58973;BME280;44750;52.040;7.472;2024-01-10T16:42:02;99254.47;;;-1.09;73.51
58973;BME280;44750;52.040;7.472;2024-01-10T16:47:02;99330.44;;;-1.20;74.90
58973;BME280;44750;52.040;7.472;2024-01-10T16:52:03;99389.97;;;-1.35;76.05
58973;BME280;44750;52.040;7.472;2024-01-10T16:57:03;99459.50;;;-1.43;76.88
58973;BME280;44750;52.040;7.472;2024-01-10T17:02:03;99550.50;;;-1.54;78.60
58973;BME280;44750;52.040;7.472;2024-01-10T17:07:04;99627.91;;;-1.60;79.30
58973;BME280;44750;52.040;7.472;2024-01-10T17:12:06;99701.31;;;-1.60;80.04
58973;BME280;44750;52.040;7.472;2024-01-10T17:17:06;99722.88;;;-1.65;80.72
58973;BME280;44750;52.040;7.472;2024-01-10T17:22:06;99767.53;;;-1.72;81.21
58973;BME280;44750;52.040;7.472;2024-01-10T17:27:06;99814.81;;;-1.78;82.27
58973;BME280;44750;52.040;7.472;2024-01-10T17:32:07;99855.28;;;-1.89;83.05
58973;BME280;44750;52.040;7.472;2024-01-10T17:37:07;99898.09;;;-1.95;83.72
58973;BME280;44750;52.040;7.472;2024-01-10T17:42:07;99961.59;;;-2.08;84.75
58973;BME280;44750;52.040;7.472;2024-01-10T17:47:07;100011.25;;;-2.10;85.29
58973;BME280;44750;52.040;7.472;2024-01-10T17:52:08;100027.69;;;-2.20;85.76
58973;BME280;44750;52.040;7.472;2024-01-10T17:57:08;100098.19;;;-2.31;87.20
58973;BME280;44750;52.040;7.472;2024-01-10T18:02:08;100164.38;;;-2.30;87.90
58973;BME280;44750;52.040;7.472;2024-01-10T18:07:08;100207.38;;;-2.41;88.87
58973;BME280;44750;52.040;7.472;2024-01-10T18:12:08;100236.16;;;-2.50;89.75
58973;BME280;44750;52.040;7.472;2024-01-10T18:17:09;100272.38;;;-2.51;90.50
58973;BME280;44750;52.040;7.472;2024-01-10T18:22:09;100343.31;;;-2.56;91.31
58973;BME280;44750;52.040;7.472;2024-01-10T18:27:09;100411.38;;;-2.57;92.12
58973;BME280;44750;52.040;7.472;2024-01-10T18:32:10;100430.53;;;-2.69;93.07
58973;BME280;44750;52.040;7.472;2024-01-10T18:37:11;100472.44;;;-2.77;94.18
58973;BME280;44750;52.040;7.472;2024-01-10T18:42:11;100546.75;;;-2.80;95.04
58973;BME280;44750;52.040;7.472;2024-01-10T18:47:12;100597.16;;;-2.82;95.76
58973;BME280;44750;52.040;7.472;2024-01-10T18:52:12;100666.63;;;-2.75;96.63
58973;BME280;44750;52.040;7.472;2024-01-10T18:57:12;100677.56;;;-2.83;97.10
58973;BME280;44750;52.040;7.472;2024-01-10T19:02:12;100708.03;;;-2.93;97.83
58973;BME280;44750;52.040;7.472;2024-01-10T19:07:12;100732.47;;;-3.07;99.06
58973;BME280;44750;52.040;7.472;2024-01-10T19:12:13;100803.06;;;-3.06;99.81
58973;BME280;44750;52.040;7.472;2024-01-10T19:17:13;100810.31;;;-3.11;100.00
58973;BME280;44750;52.040;7.472;2024-01-10T19:22:13;100850.97;;;-3.12;100.00
58973;BME280;44750;52.040;7.472;2024-01-10T19:27:13;100894.16;;;-3.10;100.00
58973;BME280;44750;52.040;7.472;2024-01-10T19:32:13;100914.66;;;-3.15;100.00
58973;BME280;44750;52.040;7.472;2024-01-10T19:37:14;100949.06;;;-3.15;100.00
58973;BME280;44750;52.040;7.472;2024-01-10T19:42:14;100977.44;;;-3.19;100.00
58973;BME280;44750;52.040;7.472;2024-01-10T19:47:14;100978.47;;;-3.23;100.00
58973;BME280;44750;52.040;7.472;2024-01-10T19:52:14;100990.28;;;-3.32;100.00
58973;BME280;44750;52.040;7.472;2024-01-10T19:57:14;101031.78;;;-3.32;100.00
58973;BME280;44750;52.040;7.472;2024-01-10T20:02:15;101065.44;;;-3.36;100.00
58973;BME280;44750;52.040;7.472;2024-01-10T20:07:15;101091.16;;;-3.40;100.00
58973;BME280;44750;52.040;7.472;2024-01-10T20:12:16;101107.19;;;-3.44;100.00
58973;BME280;44750;52.040;7.472;2024-01-10T20:17:16;101151.09;;;-3.37;100.00
58973;BME280;44750;52.040;7.472;2024-01-10T20:22:16;101174.03;;;-3.38;100.00
58973;BME280;44750;52.040;7.472;2024-01-10T20:27:16;101189.09;;;-3.40;100.00
58973;BME280;44750;52.040;7.472;2024-01-10T20:32:17;101220.00;;;-3.40;100.00
58973;BME280;44750;52.040;7.472;2024-01-10T20:37:17;101217.44;;;-3.43;100.00
58973;BME280;44750;52.040;7.472;2024-01-10T20:42:17;101211.56;;;-3.51;100.00
58973;BME280;44750;52.040;7.472;2024-01-10T20:47:17;101216.25;;;-3.61;100.00
58973;BME280;44750;52.040;7.472;2024-01-10T20:52:18;101275.16;;;-3.55;100.00
58973;BME280;44750;52.040;7.472;2024-01-10T20:57:18;101284.81;;;-3.54;100.00
58973;BME280;44750;52.040;7.472;2024-01-10T21:02:19;101309.56;;;-3.55;100.00
58973;BME280;44750;52.040;7.472;2024-01-10T21:07:19;101310.50;;;-3.56;100.00
58973;BME280;44750;52.040;7.472;2024-01-10T21:12:19;101317.72;;;-3.61;100.00
58973;BME280;44750;52.040;7.472;2024-01-10T21:17:19;101345.84;;;-3.58;100.00
58973;BME280;44750;52.040;7.472;2024-01-10T21:22:20;101348.56;;;-3.60;100.00
58973;BME280;44750;52.040;7.472;2024-01-10T21:27:20;101356.56;;;-3.63;100.00
58973;BME280;44750;52.040;7.472;2024-01-10T21:32:21;101358.41;;;-3.65;100.00
58973;BME280;44750;52.040;7.472;2024-01-10T21:37:21;101370.81;;;-3.67;100.00
58973;BME280;44750;52.040;7.472;2024-01-10T21:42:21;101383.28;;;-3.72;100.00
58973;BME280;44750;52.040;7.472;2024-01-10T21:47:21;101385.94;;;-3.72;100.00
58973;BME280;44750;52.040;7.472;2024-01-10T21:52:22;101367.63;;;-3.80;100.00
58973;BME280;44750;52.040;7.472;2024-01-10T21:57:22;101390.69;;;-3.83;100.00
58973;BME280;44750;52.040;7.472;2024-01-10T22:02:22;101401.31;;;-3.85;100.00
58973;BME280;44750;52.040;7.472;2024-01-10T22:07:22;101425.09;;;-3.83;100.00
58973;BME280;44750;52.040;7.472;2024-01-10T22:12:22;101440.06;;;-3.84;100.00
58973;BME280;44750;52.040;7.472;2024-01-10T22:17:22;101436.56;;;-3.84;100.00
58973;BME280;44750;52.040;7.472;2024-01-10T22:22:23;101465.66;;;-3.84;100.00
58973;BME280;44750;52.040;7.472;2024-01-10T22:27:23;101476.28;;;-3.86;100.00
58973;BME280;44750;52.040;7.472;2024-01-10T22:32:23;101491.22;;;-3.83;100.00
58973;BME280;44750;52.040;7.472;2024-01-10T22:37:23;101472.91;;;-3.91;100.00
58973;BME280;44750;52.040;7.472;2024-01-10T22:42:23;101498.41;;;-3.89;100.00
58973;BME280;44750;52.040;7.472;2024-01-10T22:47:24;101510.78;;;-3.89;100.00
58973;BME280;44750;52.040;7.472;2024-01-10T22:52:24;101512.44;;;-3.87;100.00
58973;BME280;44750;52.040;7.472;2024-01-10T22:57:24;101516.09;;;-3.91;100.00
58973;BME280;44750;52.040;7.472;2024-01-10T23:02:24;101512.63;;;-3.93;100.00
58973;BME280;44750;52.040;7.472;2024-01-10T23:07:25;101512.72;;;-3.96;100.00
58973;BME280;44750;52.040;7.472;2024-01-10T23:12:25;101520.66;;;-3.97;100.00
58973;BME280;44750;52.040;7.472;2024-01-10T23:17:25;101533.06;;;-3.99;100.00
58973;BME280;44750;52.040;7.472;2024-01-10T23:22:25;101550.69;;;-4.00;100.00
58973;BME280;44750;52.040;7.472;2024-01-10T23:27:25;101553.47;;;-4.05;100.00
58973;BME280;44750;52.040;7.472;2024-01-10T23:32:26;101557.91;;;-4.07;100.00
58973;BME280;44750;52.040;7.472;2024-01-10T23:37:26;101563.22;;;-4.07;100.00
58973;BME280;44750;52.040;7.472;2024-01-10T23:42:26;101557.22;;;-4.13;100.00
58973;BME280;44750;52.040;7.472;2024-01-10T23:47:26;101564.28;;;-4.14;100.00
58973;BME280;44750;52.040;7.472;2024-01-10T23:52:26;101561.63;;;-4.14;100.00
58973;BME280;44750;52.040;7.472;2024-01-10T23:57:27;101569.56;;;-4.14;100.00
